Terminal Aerodrome Forecast
Issued by NWS Caribou, ME

Home | Current Version | Previous Version | Text Only | Print | Product List | Glossary On
Versions: 1 2 3 4 5 6 7 8 9 10 11 12 13 14 15 16 17
485
FTUS41 KCAR 120520
TAFBGR
TAF
KBGR 120520Z 1206/1306 03004KT P6SM SCT100 BKN220
     FM121200 07006KT P6SM BKN025 OVC045
     FM121500 08008KT 1 1/2SM -SN BKN015 OVC022
     FM121700 08009G16KT 3/4SM -SN BR OVC008
     FM122200 12012G20KT 2SM -RASN BR OVC005
     FM130000 13012G20KT 3SM -RA BR OVC003=

USA.gov is the U.S. government's official web portal to all federal, state and local government web resources and services.